sensor_id;sensor_type;location;lat;lon;timestamp;P1;durP1;ratioP1;P2;durP2;ratioP2
76589;SDS011;65471;55.908;37.880;2023-03-04T00:02:05;13.60;;;5.18;;
76589;SDS011;65471;55.908;37.880;2023-03-04T00:04:32;22.85;;;5.60;;
76589;SDS011;65471;55.908;37.880;2023-03-04T00:06:58;14.77;;;5.20;;
76589;SDS011;65471;55.908;37.880;2023-03-04T00:09:25;17.63;;;5.68;;
76589;SDS011;65471;55.908;37.880;2023-03-04T00:11:52;17.63;;;5.32;;
76589;SDS011;65471;55.908;37.880;2023-03-04T00:14:19;15.25;;;4.95;;
76589;SDS011;65471;55.908;37.880;2023-03-04T00:16:46;13.10;;;5.53;;
76589;SDS011;65471;55.908;37.880;2023-03-04T00:19:14;10.02;;;4.40;;
76589;SDS011;65471;55.908;37.880;2023-03-04T00:21:41;7.82;;;4.60;;
76589;SDS011;65471;55.908;37.880;2023-03-04T00:24:08;11.57;;;4.75;;
76589;SDS011;65471;55.908;37.880;2023-03-04T00:26:34;14.32;;;4.55;;
76589;SDS011;65471;55.908;37.880;2023-03-04T00:29:01;23.42;;;5.32;;
76589;SDS011;65471;55.908;37.880;2023-03-04T00:31:28;12.57;;;5.50;;
76589;SDS011;65471;55.908;37.880;2023-03-04T00:33:55;13.48;;;4.80;;
76589;SDS011;65471;55.908;37.880;2023-03-04T00:36:22;11.32;;;6.25;;
76589;SDS011;65471;55.908;37.880;2023-03-04T00:38:48;15.32;;;4.85;;
76589;SDS011;65471;55.908;37.880;2023-03-04T00:41:15;14.48;;;4.63;;
76589;SDS011;65471;55.908;37.880;2023-03-04T00:43:42;13.77;;;4.57;;
76589;SDS011;65471;55.908;37.880;2023-03-04T00:46:09;8.05;;;4.72;;
76589;SDS011;65471;55.908;37.880;2023-03-04T00:48:37;6.97;;;4.47;;
76589;SDS011;65471;55.908;37.880;2023-03-04T00:51:04;12.32;;;4.75;;
76589;SDS011;65471;55.908;37.880;2023-03-04T00:53:31;10.38;;;4.57;;
76589;SDS011;65471;55.908;37.880;2023-03-04T00:55:58;12.63;;;5.38;;
76589;SDS011;65471;55.908;37.880;2023-03-04T00:58:24;11.65;;;5.13;;
76589;SDS011;65471;55.908;37.880;2023-03-04T01:00:51;10.52;;;5.75;;
76589;SDS011;65471;55.908;37.880;2023-03-04T01:03:18;17.80;;;5.70;;
76589;SDS011;65471;55.908;37.880;2023-03-04T01:05:45;10.70;;;5.40;;
76589;SDS011;65471;55.908;37.880;2023-03-04T01:08:11;13.30;;;4.50;;
76589;SDS011;65471;55.908;37.880;2023-03-04T01:10:38;11.88;;;5.72;;
76589;SDS011;65471;55.908;37.880;2023-03-04T01:13:05;16.02;;;5.40;;
76589;SDS011;65471;55.908;37.880;2023-03-04T01:15:32;10.63;;;5.20;;
76589;SDS011;65471;55.908;37.880;2023-03-04T01:17:59;7.50;;;4.72;;
76589;SDS011;65471;55.908;37.880;2023-03-04T01:20:26;11.50;;;4.82;;
76589;SDS011;65471;55.908;37.880;2023-03-04T01:22:52;6.65;;;4.75;;
76589;SDS011;65471;55.908;37.880;2023-03-04T01:25:19;16.33;;;5.13;;
76589;SDS011;65471;55.908;37.880;2023-03-04T01:27:46;5.53;;;4.72;;
76589;SDS011;65471;55.908;37.880;2023-03-04T01:30:13;12.40;;;5.38;;
76589;SDS011;65471;55.908;37.880;2023-03-04T01:32:40;11.18;;;5.43;;
76589;SDS011;65471;55.908;37.880;2023-03-04T01:35:07;15.75;;;5.90;;
76589;SDS011;65471;55.908;37.880;2023-03-04T01:37:34;6.85;;;5.45;;
76589;SDS011;65471;55.908;37.880;2023-03-04T01:40:01;15.02;;;5.68;;
76589;SDS011;65471;55.908;37.880;2023-03-04T01:42:29;10.90;;;5.80;;
76589;SDS011;65471;55.908;37.880;2023-03-04T01:44:59;11.20;;;6.25;;
76589;SDS011;65471;55.908;37.880;2023-03-04T01:47:27;9.20;;;5.25;;
76589;SDS011;65471;55.908;37.880;2023-03-04T01:49:57;7.57;;;5.80;;
76589;SDS011;65471;55.908;37.880;2023-03-04T01:52:26;17.27;;;6.35;;
76589;SDS011;65471;55.908;37.880;2023-03-04T01:54:53;10.70;;;6.25;;
76589;SDS011;65471;55.908;37.880;2023-03-04T01:57:21;14.02;;;6.18;;
76589;SDS011;65471;55.908;37.880;2023-03-04T02:02:48;8.30;;;6.20;;
76589;SDS011;65471;55.908;37.880;2023-03-04T02:05:18;8.30;;;6.50;;
76589;SDS011;65471;55.908;37.880;2023-03-04T02:07:46;18.55;;;7.57;;
76589;SDS011;65471;55.908;37.880;2023-03-04T02:10:12;15.20;;;7.18;;
76589;SDS011;65471;55.908;37.880;2023-03-04T02:12:39;10.98;;;6.50;;
76589;SDS011;65471;55.908;37.880;2023-03-04T02:15:07;10.23;;;6.53;;
76589;SDS011;65471;55.908;37.880;2023-03-04T02:17:34;13.73;;;7.28;;
76589;SDS011;65471;55.908;37.880;2023-03-04T02:22:36;7.07;;;6.38;;
76589;SDS011;65471;55.908;37.880;2023-03-04T02:25:12;14.00;;;6.88;;
76589;SDS011;65471;55.908;37.880;2023-03-04T02:27:46;13.70;;;6.60;;
76589;SDS011;65471;55.908;37.880;2023-03-04T02:30:13;11.40;;;7.13;;
76589;SDS011;65471;55.908;37.880;2023-03-04T02:32:41;14.33;;;7.40;;
76589;SDS011;65471;55.908;37.880;2023-03-04T02:35:12;15.45;;;7.22;;
76589;SDS011;65471;55.908;37.880;2023-03-04T02:37:43;12.75;;;7.38;;
76589;SDS011;65471;55.908;37.880;2023-03-04T02:40:12;17.05;;;6.90;;
76589;SDS011;65471;55.908;37.880;2023-03-04T02:42:43;10.45;;;8.07;;
76589;SDS011;65471;55.908;37.880;2023-03-04T02:45:29;16.77;;;7.85;;
76589;SDS011;65471;55.908;37.880;2023-03-04T02:48:00;17.42;;;6.85;;
76589;SDS011;65471;55.908;37.880;2023-03-04T02:50:28;15.48;;;8.55;;
76589;SDS011;65471;55.908;37.880;2023-03-04T02:52:59;22.63;;;8.60;;
76589;SDS011;65471;55.908;37.880;2023-03-04T02:55:25;20.08;;;8.13;;
76589;SDS011;65471;55.908;37.880;2023-03-04T02:57:53;21.45;;;8.20;;
76589;SDS011;65471;55.908;37.880;2023-03-04T03:00:20;15.23;;;7.80;;
76589;SDS011;65471;55.908;37.880;2023-03-04T03:02:47;13.27;;;7.45;;
76589;SDS011;65471;55.908;37.880;2023-03-04T03:05:14;19.48;;;7.85;;
76589;SDS011;65471;55.908;37.880;2023-03-04T03:07:42;16.33;;;8.50;;
76589;SDS011;65471;55.908;37.880;2023-03-04T03:10:08;19.42;;;8.50;;
76589;SDS011;65471;55.908;37.880;2023-03-04T03:12:36;11.90;;;8.57;;
76589;SDS011;65471;55.908;37.880;2023-03-04T03:15:03;18.90;;;8.60;;
76589;SDS011;65471;55.908;37.880;2023-03-04T03:17:30;9.10;;;7.90;;
76589;SDS011;65471;55.908;37.880;2023-03-04T03:19:57;16.55;;;8.90;;
76589;SDS011;65471;55.908;37.880;2023-03-04T03:22:23;16.80;;;8.35;;
76589;SDS011;65471;55.908;37.880;2023-03-04T03:24:50;13.60;;;8.57;;
76589;SDS011;65471;55.908;37.880;2023-03-04T03:27:17;15.65;;;8.60;;
76589;SDS011;65471;55.908;37.880;2023-03-04T03:29:44;14.45;;;8.82;;
76589;SDS011;65471;55.908;37.880;2023-03-04T03:32:11;20.90;;;9.13;;
76589;SDS011;65471;55.908;37.880;2023-03-04T03:34:37;17.20;;;9.10;;
76589;SDS011;65471;55.908;37.880;2023-03-04T03:37:05;22.55;;;9.20;;
76589;SDS011;65471;55.908;37.880;2023-03-04T03:39:31;19.23;;;10.00;;
76589;SDS011;65471;55.908;37.880;2023-03-04T03:41:58;22.45;;;9.70;;
76589;SDS011;65471;55.908;37.880;2023-03-04T03:44:25;21.13;;;9.77;;
76589;SDS011;65471;55.908;37.880;2023-03-04T03:46:52;16.08;;;9.45;;
76589;SDS011;65471;55.908;37.880;2023-03-04T03:49:19;17.00;;;9.18;;
76589;SDS011;65471;55.908;37.880;2023-03-04T03:51:45;24.00;;;10.88;;
76589;SDS011;65471;55.908;37.880;2023-03-04T03:54:12;22.77;;;12.32;;
76589;SDS011;65471;55.908;37.880;2023-03-04T03:56:39;25.48;;;12.00;;
76589;SDS011;65471;55.908;37.880;2023-03-04T03:59:06;30.38;;;13.32;;
76589;SDS011;65471;55.908;37.880;2023-03-04T04:01:33;30.40;;;15.10;;
76589;SDS011;65471;55.908;37.880;2023-03-04T04:04:00;28.42;;;15.27;;
76589;SDS011;65471;55.908;37.880;2023-03-04T04:06:26;34.80;;;15.18;;
76589;SDS011;65471;55.908;37.880;2023-03-04T04:08:53;27.58;;;13.77;;
76589;SDS011;65471;55.908;37.880;2023-03-04T04:11:20;28.67;;;13.85;;
76589;SDS011;65471;55.908;37.880;2023-03-04T04:13:47;29.75;;;13.57;;
76589;SDS011;65471;55.908;37.880;2023-03-04T04:16:14;31.35;;;14.40;;
76589;SDS011;65471;55.908;37.880;2023-03-04T04:18:40;26.38;;;13.70;;
76589;SDS011;65471;55.908;37.880;2023-03-04T04:21:08;31.52;;;14.38;;
76589;SDS011;65471;55.908;37.880;2023-03-04T04:23:34;35.75;;;15.88;;
76589;SDS011;65471;55.908;37.880;2023-03-04T04:26:01;24.83;;;14.32;;
76589;SDS011;65471;55.908;37.880;2023-03-04T04:28:28;26.25;;;15.00;;
76589;SDS011;65471;55.908;37.880;2023-03-04T04:30:55;33.05;;;17.05;;
76589;SDS011;65471;55.908;37.880;2023-03-04T04:33:22;21.77;;;12.43;;
76589;SDS011;65471;55.908;37.880;2023-03-04T04:35:49;31.02;;;14.88;;
76589;SDS011;65471;55.908;37.880;2023-03-04T04:38:16;35.20;;;15.90;;
76589;SDS011;65471;55.908;37.880;2023-03-04T04:40:42;37.17;;;16.15;;
76589;SDS011;65471;55.908;37.880;2023-03-04T04:43:09;43.28;;;15.68;;
76589;SDS011;65471;55.908;37.880;2023-03-04T04:45:36;35.40;;;14.88;;
76589;SDS011;65471;55.908;37.880;2023-03-04T04:48:03;24.58;;;14.95;;
76589;SDS011;65471;55.908;37.880;2023-03-04T04:50:30;40.92;;;16.65;;
76589;SDS011;65471;55.908;37.880;2023-03-04T04:52:58;22.35;;;12.88;;
76589;SDS011;65471;55.908;37.880;2023-03-04T04:55:25;28.75;;;14.70;;
76589;SDS011;65471;55.908;37.880;2023-03-04T04:57:52;42.60;;;16.92;;
76589;SDS011;65471;55.908;37.880;2023-03-04T05:00:19;32.10;;;15.73;;
76589;SDS011;65471;55.908;37.880;2023-03-04T05:02:46;35.92;;;15.40;;
76589;SDS011;65471;55.908;37.880;2023-03-04T05:05:12;34.38;;;15.77;;
76589;SDS011;65471;55.908;37.880;2023-03-04T05:07:39;47.25;;;18.25;;
76589;SDS011;65471;55.908;37.880;2023-03-04T05:10:06;28.55;;;14.65;;
76589;SDS011;65471;55.908;37.880;2023-03-04T05:12:34;35.80;;;16.33;;
76589;SDS011;65471;55.908;37.880;2023-03-04T05:15:01;41.50;;;16.45;;
76589;SDS011;65471;55.908;37.880;2023-03-04T05:17:29;31.40;;;16.27;;
76589;SDS011;65471;55.908;37.880;2023-03-04T05:19:56;33.83;;;16.48;;
76589;SDS011;65471;55.908;37.880;2023-03-04T05:22:23;29.33;;;16.05;;
76589;SDS011;65471;55.908;37.880;2023-03-04T05:24:49;27.35;;;16.02;;
76589;SDS011;65471;55.908;37.880;2023-03-04T05:27:16;28.35;;;13.10;;
76589;SDS011;65471;55.908;37.880;2023-03-04T05:29:43;27.35;;;12.95;;
76589;SDS011;65471;55.908;37.880;2023-03-04T05:32:12;17.25;;;10.38;;
76589;SDS011;65471;55.908;37.880;2023-03-04T05:34:39;24.25;;;11.32;;
76589;SDS011;65471;55.908;37.880;2023-03-04T05:37:05;23.30;;;10.90;;
76589;SDS011;65471;55.908;37.880;2023-03-04T05:39:32;20.52;;;9.95;;
76589;SDS011;65471;55.908;37.880;2023-03-04T05:41:59;19.33;;;11.07;;
76589;SDS011;65471;55.908;37.880;2023-03-04T05:44:26;21.23;;;11.25;;
76589;SDS011;65471;55.908;37.880;2023-03-04T05:46:52;20.25;;;11.15;;
76589;SDS011;65471;55.908;37.880;2023-03-04T05:49:19;21.30;;;10.25;;
76589;SDS011;65471;55.908;37.880;2023-03-04T05:51:46;16.67;;;9.48;;
76589;SDS011;65471;55.908;37.880;2023-03-04T05:54:13;24.25;;;11.73;;
76589;SDS011;65471;55.908;37.880;2023-03-04T05:56:40;17.17;;;10.60;;
76589;SDS011;65471;55.908;37.880;2023-03-04T05:59:07;14.68;;;10.68;;
76589;SDS011;65471;55.908;37.880;2023-03-04T06:01:34;30.88;;;12.85;;
76589;SDS011;65471;55.908;37.880;2023-03-04T06:04:00;26.77;;;12.60;;
76589;SDS011;65471;55.908;37.880;2023-03-04T06:06:27;27.30;;;14.32;;
76589;SDS011;65471;55.908;37.880;2023-03-04T06:08:54;20.80;;;12.20;;
76589;SDS011;65471;55.908;37.880;2023-03-04T06:11:21;17.92;;;11.20;;
76589;SDS011;65471;55.908;37.880;2023-03-04T06:13:48;18.75;;;11.23;;
76589;SDS011;65471;55.908;37.880;2023-03-04T06:16:15;22.30;;;12.73;;
76589;SDS011;65471;55.908;37.880;2023-03-04T06:18:42;19.75;;;10.77;;
76589;SDS011;65471;55.908;37.880;2023-03-04T06:21:09;25.25;;;10.82;;
76589;SDS011;65471;55.908;37.880;2023-03-04T06:23:36;20.40;;;10.80;;
76589;SDS011;65471;55.908;37.880;2023-03-04T06:26:02;15.63;;;9.82;;
76589;SDS011;65471;55.908;37.880;2023-03-04T06:28:29;15.55;;;10.05;;
76589;SDS011;65471;55.908;37.880;2023-03-04T06:30:56;15.45;;;9.82;;
76589;SDS011;65471;55.908;37.880;2023-03-04T06:33:23;19.70;;;10.57;;
76589;SDS011;65471;55.908;37.880;2023-03-04T06:35:54;20.85;;;9.85;;
76589;SDS011;65471;55.908;37.880;2023-03-04T06:38:22;14.55;;;9.77;;
76589;SDS011;65471;55.908;37.880;2023-03-04T06:40:50;21.05;;;10.25;;
76589;SDS011;65471;55.908;37.880;2023-03-04T06:43:17;13.85;;;9.57;;
76589;SDS011;65471;55.908;37.880;2023-03-04T06:45:44;15.23;;;9.35;;
76589;SDS011;65471;55.908;37.880;2023-03-04T06:48:11;16.17;;;10.05;;
76589;SDS011;65471;55.908;37.880;2023-03-04T06:50:39;15.93;;;8.25;;
76589;SDS011;65471;55.908;37.880;2023-03-04T06:53:06;17.23;;;9.75;;
76589;SDS011;65471;55.908;37.880;2023-03-04T06:55:33;11.80;;;8.50;;
76589;SDS011;65471;55.908;37.880;2023-03-04T06:58:00;16.55;;;7.93;;
76589;SDS011;65471;55.908;37.880;2023-03-04T07:00:26;15.27;;;8.93;;
76589;SDS011;65471;55.908;37.880;2023-03-04T07:02:54;17.23;;;9.15;;
76589;SDS011;65471;55.908;37.880;2023-03-04T07:05:20;21.52;;;8.75;;
76589;SDS011;65471;55.908;37.880;2023-03-04T07:07:47;14.82;;;8.50;;
76589;SDS011;65471;55.908;37.880;2023-03-04T07:10:16;11.80;;;7.93;;
76589;SDS011;65471;55.908;37.880;2023-03-04T07:12:44;13.05;;;7.07;;
76589;SDS011;65471;55.908;37.880;2023-03-04T07:15:11;15.25;;;7.53;;
76589;SDS011;65471;55.908;37.880;2023-03-04T07:17:38;10.38;;;6.72;;
76589;SDS011;65471;55.908;37.880;2023-03-04T07:20:05;11.52;;;6.82;;
76589;SDS011;65471;55.908;37.880;2023-03-04T07:22:32;10.15;;;5.55;;
76589;SDS011;65471;55.908;37.880;2023-03-04T07:24:59;15.45;;;6.43;;
76589;SDS011;65471;55.908;37.880;2023-03-04T07:27:26;13.75;;;6.18;;
76589;SDS011;65471;55.908;37.880;2023-03-04T07:29:52;13.27;;;5.43;;
76589;SDS011;65471;55.908;37.880;2023-03-04T07:32:19;5.25;;;3.50;;
76589;SDS011;65471;55.908;37.880;2023-03-04T07:34:46;6.57;;;5.43;;
76589;SDS011;65471;55.908;37.880;2023-03-04T07:37:13;12.32;;;5.80;;
76589;SDS011;65471;55.908;37.880;2023-03-04T07:39:40;7.05;;;4.68;;
76589;SDS011;65471;55.908;37.880;2023-03-04T07:42:06;5.70;;;4.47;;
76589;SDS011;65471;55.908;37.880;2023-03-04T07:44:33;6.15;;;5.10;;
76589;SDS011;65471;55.908;37.880;2023-03-04T07:47:00;7.55;;;5.10;;
76589;SDS011;65471;55.908;37.880;2023-03-04T07:49:27;9.63;;;6.00;;
76589;SDS011;65471;55.908;37.880;2023-03-04T07:51:53;9.80;;;5.53;;
76589;SDS011;65471;55.908;37.880;2023-03-04T07:54:20;9.07;;;5.47;;
76589;SDS011;65471;55.908;37.880;2023-03-04T07:56:47;14.98;;;5.85;;
76589;SDS011;65471;55.908;37.880;2023-03-04T07:59:14;11.13;;;5.72;;
76589;SDS011;65471;55.908;37.880;2023-03-04T08:01:40;9.50;;;6.03;;
76589;SDS011;65471;55.908;37.880;2023-03-04T08:06:36;5.55;;;5.05;;
76589;SDS011;65471;55.908;37.880;2023-03-04T08:09:06;11.48;;;4.60;;
76589;SDS011;65471;55.908;37.880;2023-03-04T08:11:35;13.05;;;5.57;;
76589;SDS011;65471;55.908;37.880;2023-03-04T08:14:03;7.47;;;4.85;;
76589;SDS011;65471;55.908;37.880;2023-03-04T08:16:30;8.02;;;5.20;;
76589;SDS011;65471;55.908;37.880;2023-03-04T08:18:57;6.70;;;5.03;;
76589;SDS011;65471;55.908;37.880;2023-03-04T08:21:28;5.28;;;4.50;;
76589;SDS011;65471;55.908;37.880;2023-03-04T08:23:56;10.38;;;5.20;;
76589;SDS011;65471;55.908;37.880;2023-03-04T08:26:32;5.35;;;4.90;;
76589;SDS011;65471;55.908;37.880;2023-03-04T08:29:06;7.38;;;4.50;;
76589;SDS011;65471;55.908;37.880;2023-03-04T08:31:34;5.03;;;4.63;;
76589;SDS011;65471;55.908;37.880;2023-03-04T08:34:02;7.10;;;3.40;;
76589;SDS011;65471;55.908;37.880;2023-03-04T08:36:29;10.18;;;4.72;;
76589;SDS011;65471;55.908;37.880;2023-03-04T08:38:56;8.27;;;4.57;;
76589;SDS011;65471;55.908;37.880;2023-03-04T08:41:23;4.97;;;4.45;;
76589;SDS011;65471;55.908;37.880;2023-03-04T08:43:52;4.63;;;4.10;;
76589;SDS011;65471;55.908;37.880;2023-03-04T08:46:19;4.78;;;4.43;;
76589;SDS011;65471;55.908;37.880;2023-03-04T08:48:46;8.23;;;4.15;;
76589;SDS011;65471;55.908;37.880;2023-03-04T08:51:14;4.20;;;3.85;;
76589;SDS011;65471;55.908;37.880;2023-03-04T08:53:42;8.50;;;4.95;;
76589;SDS011;65471;55.908;37.880;2023-03-04T08:56:09;8.88;;;6.28;;
76589;SDS011;65471;55.908;37.880;2023-03-04T08:58:37;29.57;;;15.87;;
76589;SDS011;65471;55.908;37.880;2023-03-04T09:01:06;6.88;;;5.68;;
76589;SDS011;65471;55.908;37.880;2023-03-04T09:03:35;6.78;;;4.72;;
76589;SDS011;65471;55.908;37.880;2023-03-04T09:06:03;10.57;;;4.95;;
76589;SDS011;65471;55.908;37.880;2023-03-04T09:08:30;5.13;;;4.50;;
76589;SDS011;65471;55.908;37.880;2023-03-04T09:10:57;6.28;;;4.43;;
76589;SDS011;65471;55.908;37.880;2023-03-04T09:13:24;5.40;;;4.90;;
76589;SDS011;65471;55.908;37.880;2023-03-04T09:15:53;4.97;;;4.68;;
76589;SDS011;65471;55.908;37.880;2023-03-04T09:18:21;6.97;;;6.00;;
76589;SDS011;65471;55.908;37.880;2023-03-04T09:20:49;5.53;;;5.10;;
76589;SDS011;65471;55.908;37.880;2023-03-04T09:23:16;11.23;;;5.45;;
76589;SDS011;65471;55.908;37.880;2023-03-04T09:25:44;10.40;;;5.75;;
76589;SDS011;65471;55.908;37.880;2023-03-04T09:28:13;13.27;;;6.63;;
76589;SDS011;65471;55.908;37.880;2023-03-04T09:30:40;5.82;;;5.28;;
76589;SDS011;65471;55.908;37.880;2023-03-04T09:33:08;14.05;;;6.55;;
76589;SDS011;65471;55.908;37.880;2023-03-04T09:35:35;13.60;;;6.85;;
76589;SDS011;65471;55.908;37.880;2023-03-04T09:38:03;15.40;;;6.63;;
76589;SDS011;65471;55.908;37.880;2023-03-04T09:40:36;7.47;;;6.70;;
76589;SDS011;65471;55.908;37.880;2023-03-04T09:43:10;7.45;;;5.95;;
76589;SDS011;65471;55.908;37.880;2023-03-04T09:45:58;10.40;;;6.43;;
76589;SDS011;65471;55.908;37.880;2023-03-04T09:48:28;8.35;;;6.45;;
76589;SDS011;65471;55.908;37.880;2023-03-04T09:54:08;13.95;;;6.60;;
76589;SDS011;65471;55.908;37.880;2023-03-04T09:56:39;7.43;;;6.22;;
76589;SDS011;65471;55.908;37.880;2023-03-04T10:01:55;8.27;;;6.85;;
76589;SDS011;65471;55.908;37.880;2023-03-04T10:07:07;12.13;;;6.93;;
76589;SDS011;65471;55.908;37.880;2023-03-04T10:12:20;8.07;;;7.25;;
76589;SDS011;65471;55.908;37.880;2023-03-04T10:14:51;7.95;;;7.10;;
76589;SDS011;65471;55.908;37.880;2023-03-04T10:22:44;11.60;;;7.65;;
76589;SDS011;65471;55.908;37.880;2023-03-04T10:25:28;12.07;;;7.20;;
76589;SDS011;65471;55.908;37.880;2023-03-04T10:28:05;10.20;;;7.45;;
76589;SDS011;65471;55.908;37.880;2023-03-04T10:33:38;9.68;;;6.80;;
76589;SDS011;65471;55.908;37.880;2023-03-04T10:38:59;8.55;;;7.13;;
76589;SDS011;65471;55.908;37.880;2023-03-04T10:41:44;12.73;;;6.80;;
76589;SDS011;65471;55.908;37.880;2023-03-04T10:44:19;7.18;;;6.35;;
76589;SDS011;65471;55.908;37.880;2023-03-04T10:46:47;7.47;;;5.85;;
76589;SDS011;65471;55.908;37.880;2023-03-04T10:49:15;8.38;;;6.10;;
76589;SDS011;65471;55.908;37.880;2023-03-04T10:51:45;8.82;;;5.68;;
76589;SDS011;65471;55.908;37.880;2023-03-04T10:54:26;11.23;;;6.63;;
76589;SDS011;65471;55.908;37.880;2023-03-04T10:57:05;10.73;;;5.57;;
76589;SDS011;65471;55.908;37.880;2023-03-04T10:59:43;10.35;;;4.90;;
76589;SDS011;65471;55.908;37.880;2023-03-04T11:02:16;5.25;;;4.63;;
76589;SDS011;65471;55.908;37.880;2023-03-04T11:07:22;5.33;;;4.57;;
76589;SDS011;65471;55.908;37.880;2023-03-04T11:09:50;4.72;;;4.32;;
76589;SDS011;65471;55.908;37.880;2023-03-04T11:12:21;5.35;;;4.95;;
76589;SDS011;65471;55.908;37.880;2023-03-04T11:14:58;5.55;;;5.05;;
76589;SDS011;65471;55.908;37.880;2023-03-04T11:17:39;5.18;;;4.80;;
76589;SDS011;65471;55.908;37.880;2023-03-04T11:20:16;6.53;;;5.10;;
76589;SDS011;65471;55.908;37.880;2023-03-04T11:22:51;7.93;;;5.20;;
76589;SDS011;65471;55.908;37.880;2023-03-04T11:25:28;5.18;;;4.70;;
76589;SDS011;65471;55.908;37.880;2023-03-04T11:28:04;14.77;;;5.20;;
76589;SDS011;65471;55.908;37.880;2023-03-04T11:30:56;10.25;;;5.78;;
76589;SDS011;65471;55.908;37.880;2023-03-04T11:39:37;6.57;;;3.63;;
76589;SDS011;65471;55.908;37.880;2023-03-04T11:42:14;6.30;;;4.60;;
76589;SDS011;65471;55.908;37.880;2023-03-04T11:44:44;5.72;;;5.20;;
76589;SDS011;65471;55.908;37.880;2023-03-04T11:47:17;5.63;;;5.13;;
76589;SDS011;65471;55.908;37.880;2023-03-04T11:50:08;9.13;;;4.95;;
76589;SDS011;65471;55.908;37.880;2023-03-04T12:14:47;10.85;;;6.07;;
76589;SDS011;65471;55.908;37.880;2023-03-04T12:23:19;8.13;;;4.95;;
76589;SDS011;65471;55.908;37.880;2023-03-04T12:37:32;10.32;;;5.60;;
76589;SDS011;65471;55.908;37.880;2023-03-04T12:43:03;10.23;;;5.75;;
76589;SDS011;65471;55.908;37.880;2023-03-04T12:45:38;5.72;;;5.22;;
76589;SDS011;65471;55.908;37.880;2023-03-04T12:53:29;7.60;;;6.53;;
76589;SDS011;65471;55.908;37.880;2023-03-04T12:59:03;9.13;;;6.53;;
76589;SDS011;65471;55.908;37.880;2023-03-04T13:01:38;10.57;;;7.28;;
76589;SDS011;65471;55.908;37.880;2023-03-04T13:07:10;9.13;;;6.88;;
76589;SDS011;65471;55.908;37.880;2023-03-04T13:10:11;12.10;;;7.78;;
76589;SDS011;65471;55.908;37.880;2023-03-04T13:12:52;10.25;;;6.22;;
76589;SDS011;65471;55.908;37.880;2023-03-04T13:20:39;7.20;;;6.50;;
76589;SDS011;65471;55.908;37.880;2023-03-04T13:35:57;9.15;;;6.57;;
76589;SDS011;65471;55.908;37.880;2023-03-04T13:38:34;8.75;;;6.47;;
76589;SDS011;65471;55.908;37.880;2023-03-04T13:41:15;6.63;;;5.88;;
76589;SDS011;65471;55.908;37.880;2023-03-04T13:44:28;11.38;;;6.43;;
76589;SDS011;65471;55.908;37.880;2023-03-04T13:46:56;7.10;;;5.53;;
76589;SDS011;65471;55.908;37.880;2023-03-04T13:49:23;8.43;;;5.30;;
76589;SDS011;65471;55.908;37.880;2023-03-04T13:51:51;7.15;;;5.45;;
76589;SDS011;65471;55.908;37.880;2023-03-04T13:57:09;11.70;;;5.70;;
76589;SDS011;65471;55.908;37.880;2023-03-04T13:59:42;7.78;;;4.97;;
76589;SDS011;65471;55.908;37.880;2023-03-04T14:04:41;4.55;;;4.25;;
76589;SDS011;65471;55.908;37.880;2023-03-04T14:10:35;5.00;;;4.68;;
76589;SDS011;65471;55.908;37.880;2023-03-04T14:15:24;6.35;;;5.35;;
76589;SDS011;65471;55.908;37.880;2023-03-04T14:17:57;7.15;;;5.60;;
76589;SDS011;65471;55.908;37.880;2023-03-04T14:20:33;5.25;;;4.85;;
76589;SDS011;65471;55.908;37.880;2023-03-04T14:23:03;6.47;;;4.88;;
76589;SDS011;65471;55.908;37.880;2023-03-04T14:25:47;7.28;;;5.05;;
76589;SDS011;65471;55.908;37.880;2023-03-04T14:28:15;9.15;;;5.22;;
76589;SDS011;65471;55.908;37.880;2023-03-04T14:30:51;9.57;;;5.63;;
76589;SDS011;65471;55.908;37.880;2023-03-04T14:33:24;5.70;;;5.20;;
76589;SDS011;65471;55.908;37.880;2023-03-04T14:35:54;7.18;;;5.78;;
76589;SDS011;65471;55.908;37.880;2023-03-04T14:38:27;5.60;;;5.10;;
76589;SDS011;65471;55.908;37.880;2023-03-04T14:46:36;5.55;;;5.15;;
76589;SDS011;65471;55.908;37.880;2023-03-04T14:49:30;7.55;;;5.60;;
76589;SDS011;65471;55.908;37.880;2023-03-04T14:51:58;6.50;;;5.90;;
76589;SDS011;65471;55.908;37.880;2023-03-04T14:56:55;8.35;;;5.97;;
76589;SDS011;65471;55.908;37.880;2023-03-04T14:59:29;8.50;;;6.38;;
76589;SDS011;65471;55.908;37.880;2023-03-04T15:02:17;6.03;;;5.53;;
76589;SDS011;65471;55.908;37.880;2023-03-04T15:04:57;6.30;;;5.85;;
76589;SDS011;65471;55.908;37.880;2023-03-04T15:07:30;8.98;;;5.95;;
76589;SDS011;65471;55.908;37.880;2023-03-04T15:10:02;10.82;;;5.88;;
76589;SDS011;65471;55.908;37.880;2023-03-04T15:12:32;8.02;;;6.07;;
76589;SDS011;65471;55.908;37.880;2023-03-04T15:18:27;7.20;;;6.22;;
76589;SDS011;65471;55.908;37.880;2023-03-04T15:21:02;7.95;;;5.68;;
76589;SDS011;65471;55.908;37.880;2023-03-04T15:23:30;8.98;;;6.75;;
76589;SDS011;65471;55.908;37.880;2023-03-04T15:25:59;10.98;;;6.57;;
76589;SDS011;65471;55.908;37.880;2023-03-04T15:28:33;7.00;;;6.50;;
76589;SDS011;65471;55.908;37.880;2023-03-04T15:31:02;7.68;;;6.85;;
76589;SDS011;65471;55.908;37.880;2023-03-04T15:33:30;7.50;;;6.43;;
76589;SDS011;65471;55.908;37.880;2023-03-04T15:35:59;12.52;;;7.65;;
76589;SDS011;65471;55.908;37.880;2023-03-04T15:38:27;12.02;;;7.13;;
76589;SDS011;65471;55.908;37.880;2023-03-04T15:40:55;8.15;;;6.55;;
76589;SDS011;65471;55.908;37.880;2023-03-04T15:43:25;9.05;;;6.97;;
76589;SDS011;65471;55.908;37.880;2023-03-04T15:45:52;11.38;;;7.68;;
76589;SDS011;65471;55.908;37.880;2023-03-04T15:48:19;11.73;;;8.25;;
76589;SDS011;65471;55.908;37.880;2023-03-04T15:50:47;8.20;;;7.35;;
76589;SDS011;65471;55.908;37.880;2023-03-04T15:53:19;8.55;;;7.70;;
76589;SDS011;65471;55.908;37.880;2023-03-04T15:55:58;10.38;;;8.38;;
76589;SDS011;65471;55.908;37.880;2023-03-04T15:58:27;17.05;;;9.13;;
76589;SDS011;65471;55.908;37.880;2023-03-04T16:00:54;9.60;;;8.35;;
76589;SDS011;65471;55.908;37.880;2023-03-04T16:03:21;9.38;;;8.50;;
76589;SDS011;65471;55.908;37.880;2023-03-04T16:05:49;10.23;;;9.00;;
76589;SDS011;65471;55.908;37.880;2023-03-04T16:08:19;13.77;;;8.82;;
76589;SDS011;65471;55.908;37.880;2023-03-04T16:10:47;16.38;;;9.30;;
76589;SDS011;65471;55.908;37.880;2023-03-04T16:13:15;13.15;;;10.00;;
76589;SDS011;65471;55.908;37.880;2023-03-04T16:15:44;12.80;;;9.63;;
76589;SDS011;65471;55.908;37.880;2023-03-04T16:18:12;10.45;;;9.45;;
76589;SDS011;65471;55.908;37.880;2023-03-04T16:20:42;16.33;;;9.93;;
76589;SDS011;65471;55.908;37.880;2023-03-04T16:23:12;12.52;;;10.00;;
76589;SDS011;65471;55.908;37.880;2023-03-04T16:25:45;11.52;;;9.77;;
76589;SDS011;65471;55.908;37.880;2023-03-04T16:30:40;13.90;;;10.00;;
76589;SDS011;65471;55.908;37.880;2023-03-04T16:33:07;15.35;;;10.73;;
76589;SDS011;65471;55.908;37.880;2023-03-04T16:35:37;18.45;;;11.63;;
76589;SDS011;65471;55.908;37.880;2023-03-04T16:38:05;13.80;;;11.53;;
76589;SDS011;65471;55.908;37.880;2023-03-04T16:40:51;11.52;;;10.35;;
76589;SDS011;65471;55.908;37.880;2023-03-04T16:43:20;19.45;;;13.18;;
76589;SDS011;65471;55.908;37.880;2023-03-04T16:45:48;21.17;;;12.90;;
76589;SDS011;65471;55.908;37.880;2023-03-04T16:48:15;17.92;;;13.05;;
76589;SDS011;65471;55.908;37.880;2023-03-04T16:50:42;16.73;;;12.27;;
76589;SDS011;65471;55.908;37.880;2023-03-04T16:56:13;14.15;;;11.00;;